createdAt,value
2023-05-17T00:00:09.617Z,94762.00
2023-05-17T00:01:09.708Z,94764.00
2023-05-17T00:02:09.742Z,94762.00
2023-05-17T00:03:10.315Z,94762.00
2023-05-17T00:04:09.921Z,94762.00
2023-05-17T00:05:09.958Z,94767.00
2023-05-17T00:06:10.127Z,94766.00
2023-05-17T00:07:10.049Z,94766.00
2023-05-17T00:08:10.156Z,94767.00
2023-05-17T00:09:10.185Z,94769.00
2023-05-17T00:10:10.238Z,94769.00
2023-05-17T00:11:10.273Z,94769.00
2023-05-17T00:12:10.356Z,94771.00
2023-05-17T00:13:10.412Z,94771.00
2023-05-17T00:14:10.482Z,94771.00
2023-05-17T00:15:10.613Z,94769.00
2023-05-17T00:16:10.611Z,94769.00
2023-05-17T00:17:10.847Z,94769.00
2023-05-17T00:18:10.823Z,94771.00
2023-05-17T00:19:10.979Z,94769.00
2023-05-17T00:20:10.868Z,94771.00
2023-05-17T00:21:10.958Z,94771.00
2023-05-17T00:22:10.970Z,94769.00
2023-05-17T00:23:11.052Z,94769.00
2023-05-17T00:24:11.119Z,94771.00
2023-05-17T00:25:11.219Z,94773.00
2023-05-17T00:26:11.239Z,94775.00
2023-05-17T00:27:11.279Z,94775.00
2023-05-17T00:28:11.360Z,94777.00
2023-05-17T00:29:11.391Z,94777.00
2023-05-17T00:30:11.458Z,94777.00
2023-05-17T00:31:11.599Z,94777.00
2023-05-17T00:32:11.543Z,94779.00
2023-05-17T00:33:11.652Z,94777.00
2023-05-17T00:34:11.696Z,94781.00
2023-05-17T00:35:11.852Z,94781.00
2023-05-17T00:36:11.857Z,94781.00
2023-05-17T00:37:11.956Z,94779.00
2023-05-17T00:38:11.935Z,94779.00
2023-05-17T00:39:12.033Z,94777.00
2023-05-17T00:40:12.041Z,94779.00
2023-05-17T00:41:12.109Z,94779.00
2023-05-17T00:42:12.297Z,94779.00
2023-05-17T00:43:12.271Z,94779.00
2023-05-17T00:44:12.316Z,94779.00
2023-05-17T00:45:12.370Z,94779.00
2023-05-17T00:46:12.427Z,94779.00
2023-05-17T00:47:12.704Z,94779.00
2023-05-17T00:48:12.701Z,94779.00
2023-05-17T00:49:12.612Z,94779.00
2023-05-17T00:50:12.666Z,94779.00
2023-05-17T00:51:12.736Z,94781.00
2023-05-17T00:52:12.777Z,94783.00
2023-05-17T00:53:12.843Z,94779.00
2023-05-17T00:54:12.919Z,94779.00
2023-05-17T00:55:12.966Z,94781.00
2023-05-17T00:56:13.008Z,94783.00
2023-05-17T00:57:13.083Z,94781.00
2023-05-17T00:58:13.126Z,94783.00
2023-05-17T00:59:13.183Z,94785.00
2023-05-17T01:00:13.235Z,94783.00
2023-05-17T01:01:13.318Z,94783.00
2023-05-17T01:02:13.577Z,94783.00
2023-05-17T01:03:13.612Z,94781.00
2023-05-17T01:04:13.708Z,94781.00
2023-05-17T01:05:13.542Z,94783.00
2023-05-17T01:06:13.628Z,94781.00
2023-05-17T01:07:13.719Z,94781.00
2023-05-17T01:08:13.799Z,94785.00
2023-05-17T01:09:13.772Z,94783.00
2023-05-17T01:10:13.868Z,94787.00
2023-05-17T01:11:14.711Z,94785.00
2023-05-17T01:12:13.937Z,94783.00
2023-05-17T01:13:14.009Z,94783.00
2023-05-17T01:14:14.052Z,94785.00
2023-05-17T01:15:14.109Z,94785.00
2023-05-17T01:16:14.152Z,94785.00
2023-05-17T01:17:14.282Z,94785.00
2023-05-17T01:18:14.448Z,94785.00
2023-05-17T01:19:14.598Z,94785.00
2023-05-17T01:20:14.496Z,94785.00
2023-05-17T01:21:14.468Z,94783.00
2023-05-17T01:22:14.541Z,94785.00
2023-05-17T01:23:14.590Z,94787.00
2023-05-17T01:24:14.631Z,94789.00
2023-05-17T01:25:14.686Z,94791.00
2023-05-17T01:26:14.808Z,94787.00
2023-05-17T01:27:14.821Z,94791.00
2023-05-17T01:28:14.932Z,94795.00
2023-05-17T01:29:14.973Z,94795.00
2023-05-17T01:30:15.000Z,94799.00
2023-05-17T01:31:15.155Z,94799.00
2023-05-17T01:32:15.095Z,94801.00
2023-05-17T01:33:15.206Z,94801.00
2023-05-17T01:34:15.214Z,94801.00
2023-05-17T01:35:15.389Z,94801.00
2023-05-17T01:36:15.354Z,94801.00
2023-05-17T01:37:15.395Z,94805.00
2023-05-17T01:38:15.634Z,94807.00
2023-05-17T01:39:15.476Z,94803.00
2023-05-17T01:40:15.564Z,94805.00
2023-05-17T01:41:15.644Z,94805.00
2023-05-17T01:42:16.259Z,94807.00
2023-05-17T01:43:15.752Z,94805.00
2023-05-17T01:44:15.811Z,94809.00
2023-05-17T01:45:15.859Z,94807.00
2023-05-17T01:46:15.875Z,94805.00
2023-05-17T01:47:16.046Z,94805.00
2023-05-17T01:48:16.001Z,94805.00
2023-05-17T01:49:15.990Z,94807.00
2023-05-17T01:50:16.068Z,94807.00
2023-05-17T01:51:16.105Z,94807.00
2023-05-17T01:52:16.060Z,94807.00
2023-05-17T01:53:16.111Z,94809.00
2023-05-17T01:54:16.090Z,94807.00
2023-05-17T01:55:16.124Z,94805.00
2023-05-17T01:56:16.133Z,94809.00
2023-05-17T01:57:16.148Z,94814.00
2023-05-17T01:58:16.206Z,94814.00
2023-05-17T01:59:16.213Z,94816.00
2023-05-17T02:00:16.250Z,94818.00
2023-05-17T02:01:16.285Z,94818.00
2023-05-17T02:02:16.286Z,94820.00
2023-05-17T02:03:16.476Z,94818.00
2023-05-17T02:04:16.435Z,94820.00
2023-05-17T02:05:16.410Z,94820.00
2023-05-17T02:06:16.369Z,94820.00
2023-05-17T02:07:16.378Z,94824.00
2023-05-17T02:08:16.413Z,94822.00
2023-05-17T02:09:16.496Z,94822.00
2023-05-17T02:10:16.553Z,94824.00
2023-05-17T02:11:16.597Z,94828.00
2023-05-17T02:12:16.659Z,94824.00
2023-05-17T02:13:16.660Z,94826.00
2023-05-17T02:14:16.719Z,94826.00
2023-05-17T02:15:16.753Z,94826.00
2023-05-17T02:16:16.777Z,94826.00
2023-05-17T02:17:16.867Z,94828.00
2023-05-17T02:18:16.965Z,94832.00
2023-05-17T02:19:17.037Z,94830.00
2023-05-17T02:20:16.969Z,94834.00
2023-05-17T02:21:17.025Z,94836.00
2023-05-17T02:22:17.033Z,94834.00
2023-05-17T02:23:17.193Z,94838.00
2023-05-17T02:24:17.095Z,94838.00
2023-05-17T02:25:17.175Z,94838.00
2023-05-17T02:26:17.167Z,94840.00
2023-05-17T02:27:17.213Z,94840.00
2023-05-17T02:28:17.283Z,94840.00
2023-05-17T02:29:17.293Z,94840.00
2023-05-17T02:30:18.312Z,94840.00
2023-05-17T02:31:17.412Z,94842.00
2023-05-17T02:32:17.421Z,94844.00
2023-05-17T02:33:17.420Z,94842.00
2023-05-17T02:34:17.367Z,94844.00
2023-05-17T02:35:17.368Z,94846.00
2023-05-17T02:36:17.430Z,94848.00
2023-05-17T02:37:17.458Z,94848.00
2023-05-17T02:38:17.521Z,94850.00
2023-05-17T02:39:17.615Z,94852.00
2023-05-17T02:40:17.551Z,94854.00
2023-05-17T02:41:17.518Z,94854.00
2023-05-17T02:42:17.622Z,94852.00
2023-05-17T02:43:17.619Z,94858.00
2023-05-17T02:44:17.588Z,94856.00
2023-05-17T02:45:17.640Z,94856.00
2023-05-17T02:46:17.671Z,94856.00
2023-05-17T02:47:17.677Z,94858.00
2023-05-17T02:48:17.691Z,94866.00
2023-05-17T02:49:17.728Z,94864.00
2023-05-17T02:50:17.741Z,94864.00
2023-05-17T02:51:17.737Z,94868.00
2023-05-17T02:52:17.743Z,94869.00
2023-05-17T02:53:17.755Z,94873.00
2023-05-17T02:54:17.756Z,94873.00
2023-05-17T02:55:17.809Z,94873.00
2023-05-17T02:56:17.780Z,94875.00
2023-05-17T02:57:17.745Z,94877.00
2023-05-17T02:58:17.790Z,94879.00
2023-05-17T02:59:17.766Z,94875.00
2023-05-17T03:00:17.757Z,94879.00
2023-05-17T03:01:17.760Z,94891.00
2023-05-17T03:02:17.862Z,94893.00
2023-05-17T03:03:17.942Z,94891.00
2023-05-17T03:04:17.796Z,94895.00
2023-05-17T03:05:17.796Z,94897.00
2023-05-17T03:06:17.853Z,94899.00
2023-05-17T03:07:17.862Z,94901.00
2023-05-17T03:08:17.866Z,94903.00
2023-05-17T03:09:17.909Z,94905.00
2023-05-17T03:10:17.920Z,94905.00
2023-05-17T03:11:18.038Z,94907.00
2023-05-17T03:12:17.911Z,94909.00
2023-05-17T03:13:17.910Z,94909.00
2023-05-17T03:14:17.892Z,94909.00
2023-05-17T03:15:17.913Z,94913.00
2023-05-17T03:16:17.955Z,94914.00
2023-05-17T03:17:17.917Z,94914.00
2023-05-17T03:18:18.009Z,94918.00
2023-05-17T03:19:18.096Z,94920.00
2023-05-17T03:20:17.930Z,94920.00
2023-05-17T03:21:17.929Z,94920.00
2023-05-17T03:22:17.933Z,94922.00
2023-05-17T03:23:18.011Z,94926.00
2023-05-17T03:24:18.020Z,94926.00
2023-05-17T03:25:17.960Z,94926.00
2023-05-17T03:26:17.939Z,94926.00
2023-05-17T03:27:18.012Z,94930.00
2023-05-17T03:28:17.929Z,94930.00
2023-05-17T03:29:17.961Z,94930.00
2023-05-17T03:30:17.990Z,94930.00
2023-05-17T03:31:17.963Z,94932.00
2023-05-17T03:32:17.945Z,94932.00
2023-05-17T03:33:17.972Z,94934.00
2023-05-17T03:34:17.914Z,94936.00
2023-05-17T03:35:17.959Z,94936.00
2023-05-17T03:36:17.940Z,94940.00
2023-05-17T03:37:17.948Z,94940.00
2023-05-17T03:38:17.955Z,94942.00
2023-05-17T03:39:17.907Z,94944.00
2023-05-17T03:40:17.920Z,94944.00
2023-05-17T03:41:17.966Z,94948.00
2023-05-17T03:42:17.912Z,94948.00
2023-05-17T03:43:18.033Z,94950.00
2023-05-17T03:44:17.917Z,94952.00
2023-05-17T03:45:17.942Z,94952.00
2023-05-17T03:46:17.922Z,94952.00
2023-05-17T03:47:17.924Z,94950.00
2023-05-17T03:48:17.957Z,94952.00
2023-05-17T03:49:18.008Z,94956.00
2023-05-17T03:50:17.927Z,94954.00
2023-05-17T03:51:17.887Z,94956.00
2023-05-17T03:52:17.897Z,94958.00
2023-05-17T03:53:17.951Z,94961.00
2023-05-17T03:54:17.908Z,94960.00
2023-05-17T03:55:17.901Z,94960.00
2023-05-17T03:56:17.939Z,94961.00
2023-05-17T03:57:17.927Z,94963.00
2023-05-17T03:58:17.941Z,94965.00
2023-05-17T03:59:17.972Z,94967.00
2023-05-17T04:00:17.906Z,94963.00
2023-05-17T04:01:17.902Z,94967.00
2023-05-17T04:02:17.932Z,94987.00
2023-05-17T04:03:20.018Z,94991.00
2023-05-17T04:04:18.010Z,94991.00
2023-05-17T04:05:17.985Z,94991.00
2023-05-17T04:06:17.932Z,94991.00
2023-05-17T04:07:17.938Z,94993.00
2023-05-17T04:08:17.898Z,94995.00
2023-05-17T04:09:17.953Z,94993.00
2023-05-17T04:10:17.967Z,94999.00
2023-05-17T04:11:17.898Z,95001.00
2023-05-17T04:12:17.938Z,95003.00
2023-05-17T04:13:17.944Z,94999.00
2023-05-17T04:14:17.968Z,95001.00
2023-05-17T04:15:18.091Z,94999.00
2023-05-17T04:16:17.967Z,94999.00
2023-05-17T04:17:17.966Z,95001.00
2023-05-17T04:18:18.102Z,95001.00
2023-05-17T04:19:18.071Z,94995.00
2023-05-17T04:20:18.031Z,94999.00
2023-05-17T04:21:18.011Z,94995.00
2023-05-17T04:22:18.044Z,94995.00
2023-05-17T04:23:18.050Z,94997.00
2023-05-17T04:24:18.049Z,94999.00
2023-05-17T04:25:18.066Z,94999.00
2023-05-17T04:26:18.073Z,95001.00
2023-05-17T04:27:18.147Z,95003.00
2023-05-17T04:28:18.080Z,95005.00
2023-05-17T04:29:18.121Z,95009.00
2023-05-17T04:30:18.131Z,94987.00
2023-05-17T04:31:18.227Z,94987.00
2023-05-17T04:32:18.209Z,94985.00
2023-05-17T04:33:18.247Z,94989.00
2023-05-17T04:34:18.185Z,94987.00
2023-05-17T04:35:18.235Z,94989.00
2023-05-17T04:36:18.241Z,94993.00
2023-05-17T04:37:18.241Z,94993.00
2023-05-17T04:38:18.246Z,94997.00
2023-05-17T04:39:18.299Z,94999.00
2023-05-17T04:40:18.297Z,94999.00
2023-05-17T04:41:18.273Z,95001.00
2023-05-17T04:42:18.323Z,95003.00
2023-05-17T04:43:18.354Z,95005.00
2023-05-17T04:44:18.330Z,95007.00
2023-05-17T04:45:18.332Z,95007.00
2023-05-17T04:46:18.378Z,95007.00
2023-05-17T04:47:18.487Z,95007.00
2023-05-17T04:48:18.429Z,95007.00
2023-05-17T04:49:18.376Z,95007.00
2023-05-17T04:50:18.412Z,95007.00
2023-05-17T04:51:18.382Z,95009.00
2023-05-17T04:52:18.394Z,95005.00
2023-05-17T04:53:18.450Z,95009.00
2023-05-17T04:54:18.429Z,94967.00
2023-05-17T04:55:18.408Z,94967.00
2023-05-17T04:56:18.400Z,95007.00
2023-05-17T04:57:18.418Z,95009.00
2023-05-17T04:58:19.011Z,95007.00
2023-05-17T04:59:18.428Z,95009.00
2023-05-17T05:00:18.493Z,95011.00
2023-05-17T05:01:18.479Z,95013.00
2023-05-17T05:02:18.528Z,95015.00
2023-05-17T05:03:18.594Z,95015.00
2023-05-17T05:04:18.528Z,95015.00
2023-05-17T05:05:18.542Z,95018.00
2023-05-17T05:06:18.554Z,95020.00
2023-05-17T05:07:18.577Z,95024.00
2023-05-17T05:08:18.604Z,95020.00
2023-05-17T05:09:18.613Z,95022.00
2023-05-17T05:10:18.685Z,95024.00
2023-05-17T05:11:18.691Z,95026.00
2023-05-17T05:12:18.804Z,95026.00
2023-05-17T05:13:18.811Z,95028.00
2023-05-17T05:14:18.801Z,95030.00
2023-05-17T05:15:18.856Z,95030.00
2023-05-17T05:16:18.931Z,95030.00
2023-05-17T05:17:19.136Z,95030.00
2023-05-17T05:18:19.125Z,95030.00
2023-05-17T05:19:19.673Z,95032.00
2023-05-17T05:20:19.057Z,95036.00
2023-05-17T05:21:19.128Z,95036.00
2023-05-17T05:22:19.117Z,95038.00
2023-05-17T05:23:19.209Z,95044.00
2023-05-17T05:24:19.205Z,95044.00
2023-05-17T05:25:19.236Z,95044.00
2023-05-17T05:26:19.285Z,95048.00
2023-05-17T05:27:19.315Z,95048.00
2023-05-17T05:28:19.862Z,95048.00
2023-05-17T05:29:19.388Z,95046.00
2023-05-17T05:30:19.490Z,95046.00
2023-05-17T05:31:19.471Z,95046.00
2023-05-17T05:32:19.553Z,95050.00
2023-05-17T05:33:19.671Z,95048.00
2023-05-17T05:34:19.619Z,95050.00
2023-05-17T05:35:19.813Z,95046.00
2023-05-17T05:36:19.780Z,95046.00
2023-05-17T05:37:19.821Z,95046.00
2023-05-17T05:38:19.899Z,95044.00
2023-05-17T05:39:19.928Z,95046.00
2023-05-17T05:40:19.902Z,95046.00
2023-05-17T05:41:19.919Z,95046.00
2023-05-17T05:42:20.028Z,95050.00
2023-05-17T05:43:20.157Z,95054.00
2023-05-17T05:44:20.105Z,95050.00
2023-05-17T05:45:19.971Z,95056.00
2023-05-17T05:46:20.348Z,95056.00
2023-05-17T05:47:20.048Z,95058.00
2023-05-17T05:48:20.185Z,95079.00
2023-05-17T05:49:20.176Z,95081.00
2023-05-17T05:50:20.184Z,95081.00
2023-05-17T05:51:22.015Z,95081.00
2023-05-17T05:52:20.346Z,95079.00
2023-05-17T05:53:20.359Z,95081.00
2023-05-17T05:54:20.359Z,95079.00
2023-05-17T05:55:20.424Z,95085.00
2023-05-17T05:56:20.315Z,95085.00
2023-05-17T05:57:20.395Z,95083.00
2023-05-17T05:58:20.402Z,95087.00
2023-05-17T05:59:20.361Z,95089.00
2023-05-17T06:00:20.365Z,95093.00
2023-05-17T06:01:20.362Z,95087.00
2023-05-17T06:02:21.053Z,95087.00
2023-05-17T06:03:21.345Z,95089.00
2023-05-17T06:04:24.647Z,95089.00
2023-05-17T06:05:21.403Z,95067.00
2023-05-17T06:06:20.402Z,95069.00
2023-05-17T06:07:20.390Z,95067.00
2023-05-17T06:08:20.357Z,95095.00
2023-05-17T06:09:20.606Z,95093.00
2023-05-17T06:10:20.416Z,95093.00
2023-05-17T06:11:20.287Z,95093.00
2023-05-17T06:12:20.358Z,95097.00
2023-05-17T06:13:20.294Z,95093.00
2023-05-17T06:14:20.347Z,95097.00
2023-05-17T06:15:20.384Z,95093.00
2023-05-17T06:16:20.570Z,95093.00
2023-05-17T06:17:20.506Z,95093.00
2023-05-17T06:18:20.651Z,95093.00
2023-05-17T06:19:20.749Z,95093.00
2023-05-17T06:20:20.703Z,95093.00
2023-05-17T06:21:20.807Z,95099.00
2023-05-17T06:22:20.817Z,95101.00
2023-05-17T06:23:20.844Z,95101.00
2023-05-17T06:24:20.859Z,95103.00
2023-05-17T06:25:20.865Z,95105.00
2023-05-17T06:26:20.836Z,95103.00
2023-05-17T06:27:20.868Z,95103.00
2023-05-17T06:28:20.851Z,95103.00
2023-05-17T06:29:20.870Z,95103.00
2023-05-17T06:30:20.859Z,95105.00
2023-05-17T06:31:21.241Z,95107.00
2023-05-17T06:32:20.836Z,95105.00
2023-05-17T06:33:20.862Z,95081.00
2023-05-17T06:34:20.776Z,95087.00
2023-05-17T06:35:20.922Z,95085.00
2023-05-17T06:36:20.922Z,95087.00
2023-05-17T06:37:21.024Z,95085.00
2023-05-17T06:38:21.340Z,95089.00
2023-05-17T06:39:21.351Z,95091.00
2023-05-17T06:40:21.165Z,95093.00
2023-05-17T06:41:21.195Z,95093.00
2023-05-17T06:42:21.256Z,95093.00
2023-05-17T06:43:22.932Z,95116.00
2023-05-17T06:44:21.222Z,95114.00
2023-05-17T06:45:21.384Z,95118.00
2023-05-17T06:46:21.917Z,95122.00
2023-05-17T06:47:21.309Z,95118.00
2023-05-17T06:48:21.441Z,95120.00
2023-05-17T06:49:21.747Z,95122.00
2023-05-17T06:50:21.415Z,95122.00
2023-05-17T06:51:21.530Z,95124.00
2023-05-17T06:52:21.552Z,95122.00
2023-05-17T06:53:21.561Z,95124.00
2023-05-17T06:54:21.669Z,95128.00
2023-05-17T06:55:21.811Z,95126.00
2023-05-17T06:56:21.850Z,95130.00
2023-05-17T06:57:22.274Z,95128.00
2023-05-17T06:58:21.827Z,95128.00
2023-05-17T06:59:21.881Z,95130.00
2023-05-17T07:00:21.921Z,95132.00
2023-05-17T07:01:22.032Z,95134.00
2023-05-17T07:02:22.000Z,95138.00
2023-05-17T07:03:22.413Z,95136.00
2023-05-17T07:04:22.274Z,95136.00
2023-05-17T07:05:22.221Z,95138.00
2023-05-17T07:06:22.235Z,95138.00
2023-05-17T07:07:22.273Z,95140.00
2023-05-17T07:08:22.207Z,95140.00
2023-05-17T07:09:22.902Z,95140.00
2023-05-17T07:10:22.310Z,95150.00
2023-05-17T07:11:22.381Z,95150.00
2023-05-17T07:12:22.379Z,95122.00
2023-05-17T07:13:22.420Z,95124.00
2023-05-17T07:14:22.425Z,95124.00
2023-05-17T07:15:22.420Z,95126.00
2023-05-17T07:16:22.547Z,95150.00
2023-05-17T07:17:22.519Z,95150.00
2023-05-17T07:18:23.114Z,95150.00
2023-05-17T07:19:22.644Z,95154.00
2023-05-17T07:20:22.650Z,95158.00
2023-05-17T07:21:22.609Z,95156.00
2023-05-17T07:22:22.656Z,95156.00
2023-05-17T07:23:22.880Z,95158.00
2023-05-17T07:24:22.767Z,95158.00
2023-05-17T07:25:22.782Z,95156.00
2023-05-17T07:26:22.888Z,95156.00
2023-05-17T07:27:23.035Z,95156.00
2023-05-17T07:28:23.047Z,95132.00
2023-05-17T07:29:22.909Z,95130.00
2023-05-17T07:30:22.941Z,95132.00
2023-05-17T07:31:23.870Z,95132.00
2023-05-17T07:32:22.959Z,95132.00
2023-05-17T07:33:23.054Z,95134.00
2023-05-17T07:34:23.115Z,95136.00
2023-05-17T07:35:23.124Z,95132.00
2023-05-17T07:36:23.253Z,95136.00
2023-05-17T07:37:23.362Z,95138.00
2023-05-17T07:38:23.294Z,95138.00
2023-05-17T07:39:23.424Z,95138.00
2023-05-17T07:40:23.313Z,95134.00
2023-05-17T07:41:24.379Z,95138.00
2023-05-17T07:42:23.495Z,95136.00
2023-05-17T07:43:23.537Z,95136.00
2023-05-17T07:44:23.530Z,95136.00
2023-05-17T07:45:23.527Z,95136.00
2023-05-17T07:46:23.497Z,95134.00
2023-05-17T07:47:23.583Z,95134.00
2023-05-17T07:48:23.685Z,95136.00
2023-05-17T07:49:23.539Z,95134.00
2023-05-17T07:50:23.460Z,95160.00
2023-05-17T07:51:23.581Z,95158.00
2023-05-17T07:52:23.524Z,95158.00
2023-05-17T07:53:23.582Z,95156.00
2023-05-17T07:54:23.801Z,95156.00
2023-05-17T07:55:23.741Z,95160.00
2023-05-17T07:56:23.762Z,95160.00
2023-05-17T07:57:23.808Z,95162.00
2023-05-17T07:58:23.811Z,95163.00
2023-05-17T07:59:23.874Z,95163.00
2023-05-17T08:00:24.025Z,95167.00
2023-05-17T08:01:23.937Z,95162.00
2023-05-17T08:02:24.004Z,95154.00
2023-05-17T08:03:24.058Z,95140.00
2023-05-17T08:04:24.115Z,95140.00
2023-05-17T08:05:24.078Z,95138.00
2023-05-17T08:06:24.202Z,95140.00
2023-05-17T08:07:24.238Z,95140.00
2023-05-17T08:08:24.199Z,95138.00
2023-05-17T08:09:24.304Z,95148.00
2023-05-17T08:10:24.293Z,95140.00
2023-05-17T08:11:24.357Z,95150.00
2023-05-17T08:12:24.638Z,95150.00
2023-05-17T08:13:24.468Z,95154.00
2023-05-17T08:14:24.491Z,95150.00
2023-05-17T08:15:24.516Z,95156.00
2023-05-17T08:16:24.547Z,95156.00
2023-05-17T08:17:24.652Z,95158.00
2023-05-17T08:18:24.830Z,95160.00
2023-05-17T08:19:24.895Z,95179.00
2023-05-17T08:20:24.903Z,95177.00
2023-05-17T08:21:24.826Z,95179.00
2023-05-17T08:22:24.900Z,95177.00
2023-05-17T08:23:24.946Z,95181.00
2023-05-17T08:24:24.959Z,95181.00
2023-05-17T08:25:25.013Z,95183.00
2023-05-17T08:26:25.234Z,95165.00
2023-05-17T08:27:25.135Z,95165.00
2023-05-17T08:28:25.462Z,95167.00
2023-05-17T08:29:25.161Z,95169.00
2023-05-17T08:30:28.840Z,95169.00
2023-05-17T08:31:25.222Z,95171.00
2023-05-17T08:32:25.225Z,95171.00
2023-05-17T08:33:25.272Z,95173.00
2023-05-17T08:34:25.185Z,95177.00
2023-05-17T08:35:27.722Z,95181.00
2023-05-17T08:36:25.197Z,95181.00
2023-05-17T08:37:25.153Z,95181.00
2023-05-17T08:38:25.221Z,95179.00
2023-05-17T08:39:25.119Z,95181.00
2023-05-17T08:40:25.303Z,95181.00
2023-05-17T08:41:25.181Z,95185.00
2023-05-17T08:42:25.155Z,95213.00
2023-05-17T08:43:26.817Z,95209.00
2023-05-17T08:44:25.104Z,95213.00
2023-05-17T08:45:25.096Z,95211.00
2023-05-17T08:46:25.640Z,95215.00
2023-05-17T08:47:25.408Z,95215.00
2023-05-17T08:48:25.106Z,95215.00
2023-05-17T08:49:25.188Z,95217.00
2023-05-17T08:50:25.099Z,95220.00
2023-05-17T08:51:25.103Z,95220.00
2023-05-17T08:52:25.038Z,95222.00
2023-05-17T08:53:25.063Z,95220.00
2023-05-17T08:54:25.010Z,95222.00
2023-05-17T08:55:25.029Z,95222.00
2023-05-17T08:56:25.028Z,95226.00
2023-05-17T08:57:25.004Z,95226.00
2023-05-17T08:58:25.031Z,95226.00
2023-05-17T08:59:25.089Z,95226.00
2023-05-17T09:00:25.006Z,95232.00
2023-05-17T09:01:26.417Z,95230.00
2023-05-17T09:02:25.031Z,95230.00
2023-05-17T09:03:25.036Z,95230.00
2023-05-17T09:04:25.028Z,95234.00
2023-05-17T09:05:24.960Z,95234.00
2023-05-17T09:06:25.009Z,95234.00
2023-05-17T09:07:24.947Z,95236.00
2023-05-17T09:08:25.016Z,95234.00
2023-05-17T09:09:25.015Z,95238.00
2023-05-17T09:10:25.119Z,95242.00
2023-05-17T09:11:25.125Z,95242.00
2023-05-17T09:12:25.820Z,95244.00
2023-05-17T09:13:25.199Z,95246.00
2023-05-17T09:14:25.352Z,95246.00
2023-05-17T09:15:25.298Z,95248.00
2023-05-17T09:16:25.368Z,95254.00
2023-05-17T09:17:25.407Z,95254.00
2023-05-17T09:18:25.448Z,95252.00
2023-05-17T09:19:25.664Z,95254.00
2023-05-17T09:20:25.561Z,95256.00
2023-05-17T09:21:25.509Z,95228.00
2023-05-17T09:22:25.596Z,95252.00
2023-05-17T09:23:25.631Z,95258.00
2023-05-17T09:24:25.616Z,95238.00
2023-05-17T09:25:25.637Z,95238.00
2023-05-17T09:26:25.639Z,95262.00
2023-05-17T09:27:25.674Z,95262.00
2023-05-17T09:28:25.685Z,95265.00
2023-05-17T09:29:25.767Z,95265.00
2023-05-17T09:30:25.937Z,95248.00
2023-05-17T09:31:25.832Z,95246.00
2023-05-17T09:32:25.972Z,95252.00
2023-05-17T09:33:25.834Z,95248.00
2023-05-17T09:34:25.834Z,95248.00
2023-05-17T09:35:26.030Z,95248.00
2023-05-17T09:36:25.923Z,95267.00
2023-05-17T09:37:25.935Z,95267.00
2023-05-17T09:38:26.003Z,95267.00
2023-05-17T09:39:25.936Z,95269.00
2023-05-17T09:40:26.105Z,95267.00
2023-05-17T09:41:26.069Z,95269.00
2023-05-17T09:42:26.065Z,95271.00
2023-05-17T09:43:26.000Z,95273.00
2023-05-17T09:44:26.019Z,95273.00
2023-05-17T09:45:26.111Z,95273.00
2023-05-17T09:46:26.023Z,95269.00
2023-05-17T09:47:26.316Z,95271.00
2023-05-17T09:48:26.193Z,95271.00
2023-05-17T09:49:26.101Z,95275.00
2023-05-17T09:50:26.433Z,95277.00
2023-05-17T09:51:26.147Z,95277.00
2023-05-17T09:52:26.129Z,95277.00
2023-05-17T09:53:26.123Z,95279.00
2023-05-17T09:54:26.191Z,95279.00
2023-05-17T09:55:26.275Z,95279.00
2023-05-17T09:56:26.173Z,95277.00
2023-05-17T09:57:26.288Z,95279.00
2023-05-17T09:58:26.612Z,95277.00
2023-05-17T09:59:26.213Z,95281.00
2023-05-17T10:00:28.050Z,95277.00
2023-05-17T10:01:26.194Z,95275.00
2023-05-17T10:02:26.144Z,95279.00
2023-05-17T10:03:26.215Z,95279.00
2023-05-17T10:04:26.201Z,95275.00
2023-05-17T10:05:26.699Z,95277.00
2023-05-17T10:06:39.229Z,95277.00
2023-05-17T10:07:27.311Z,95275.00
2023-05-17T10:08:26.252Z,95275.00
2023-05-17T10:09:26.168Z,95279.00
2023-05-17T10:10:26.193Z,95277.00
2023-05-17T10:11:26.201Z,95281.00
2023-05-17T10:12:26.162Z,95277.00
2023-05-17T10:13:26.163Z,95279.00
2023-05-17T10:14:26.227Z,95275.00
2023-05-17T10:15:26.720Z,95275.00
2023-05-17T10:16:26.222Z,95277.00
2023-05-17T10:17:26.167Z,95277.00
2023-05-17T10:18:26.182Z,95275.00
2023-05-17T10:19:26.320Z,95275.00
2023-05-17T10:20:26.166Z,95283.00
2023-05-17T10:21:26.251Z,95277.00
2023-05-17T10:22:26.062Z,95277.00
2023-05-17T10:23:26.159Z,95254.00
2023-05-17T10:24:26.073Z,95258.00
2023-05-17T10:25:26.170Z,95260.00
2023-05-17T10:26:26.074Z,95260.00
2023-05-17T10:27:26.114Z,95256.00
2023-05-17T10:28:26.114Z,95260.00
2023-05-17T10:29:26.104Z,95252.00
2023-05-17T10:30:26.218Z,95254.00
2023-05-17T10:31:26.207Z,95254.00
2023-05-17T10:32:26.259Z,95258.00
2023-05-17T10:33:26.578Z,95252.00
2023-05-17T10:34:26.370Z,95258.00
2023-05-17T10:35:26.427Z,95254.00
2023-05-17T10:36:26.531Z,95258.00
2023-05-17T10:37:26.543Z,95262.00
2023-05-17T10:38:38.732Z,95258.00
2023-05-17T10:39:27.535Z,95256.00
2023-05-17T10:40:26.500Z,95260.00
2023-05-17T10:41:26.521Z,95260.00
2023-05-17T10:42:26.503Z,95256.00
2023-05-17T10:43:26.479Z,95256.00
2023-05-17T10:44:26.484Z,95256.00
2023-05-17T10:45:26.490Z,95254.00
2023-05-17T10:46:26.505Z,95258.00
2023-05-17T10:47:26.450Z,95258.00
2023-05-17T10:48:26.612Z,95258.00
2023-05-17T10:49:26.582Z,95256.00
2023-05-17T10:50:26.527Z,95254.00
2023-05-17T10:51:26.421Z,95254.00
2023-05-17T10:52:26.421Z,95256.00
2023-05-17T10:53:26.475Z,95256.00
2023-05-17T10:54:26.402Z,95254.00
2023-05-17T10:55:26.474Z,95252.00
2023-05-17T10:56:26.409Z,95252.00
2023-05-17T10:57:27.662Z,95258.00
2023-05-17T10:58:26.378Z,95256.00
2023-05-17T10:59:26.335Z,95254.00
2023-05-17T11:00:26.440Z,95260.00
2023-05-17T11:01:26.339Z,95252.00
2023-05-17T11:02:26.341Z,95254.00
2023-05-17T11:03:26.353Z,95252.00
2023-05-17T11:04:26.655Z,95256.00
2023-05-17T11:05:26.387Z,95254.00
2023-05-17T11:06:26.437Z,95256.00
2023-05-17T11:07:26.339Z,95254.00
2023-05-17T11:08:26.354Z,95252.00
2023-05-17T11:09:26.296Z,95250.00
2023-05-17T11:10:26.387Z,95250.00
2023-05-17T11:11:26.277Z,95252.00
2023-05-17T11:12:26.257Z,95252.00
2023-05-17T11:13:26.272Z,95250.00
2023-05-17T11:14:26.377Z,95252.00
2023-05-17T11:15:26.324Z,95254.00
2023-05-17T11:16:26.491Z,95248.00
2023-05-17T11:17:26.298Z,95252.00
2023-05-17T11:18:31.099Z,95252.00
2023-05-17T11:19:27.321Z,95254.00
2023-05-17T11:20:26.492Z,95271.00
2023-05-17T11:21:26.302Z,95273.00
2023-05-17T11:22:26.252Z,95269.00
2023-05-17T11:23:26.241Z,95269.00
2023-05-17T11:24:26.239Z,95273.00
2023-05-17T11:25:26.297Z,95271.00
2023-05-17T11:26:26.260Z,95271.00
2023-05-17T11:27:26.261Z,95273.00
2023-05-17T11:28:26.209Z,95267.00
2023-05-17T11:29:26.189Z,95269.00
2023-05-17T11:30:26.368Z,95267.00
2023-05-17T11:31:26.234Z,95269.00
2023-05-17T11:32:26.334Z,95267.00
2023-05-17T11:33:33.694Z,95267.00
2023-05-17T11:34:27.445Z,95269.00
2023-05-17T11:35:26.323Z,95267.00
2023-05-17T11:36:26.466Z,95267.00
2023-05-17T11:37:26.340Z,95271.00
2023-05-17T11:38:26.280Z,95267.00
2023-05-17T11:39:26.282Z,95267.00
2023-05-17T11:40:26.341Z,95265.00
2023-05-17T11:41:27.221Z,95269.00
2023-05-17T11:42:26.273Z,95264.00
2023-05-17T11:43:26.375Z,95267.00
2023-05-17T11:44:26.371Z,95267.00